Time;durP1;ratioP1;P1;durP2;ratioP2;P2;SDS_P1;SDS_P2;PMS_P1;PMS_P2;Temp;Humidity;BMP_temperature;BMP_pressure;BME280_temperature;BME280_humidity;BME280_pressure;Samples;Min_cycle;Max_cycle;Signal;HPM_P1;HPM_P2
2022/11/29 00:06:37;;;;;;;19.05;7.30;;;6.20;99.90;;;;;;21331604;27;20401;-82
2022/11/29 00:16:41;;;;;;;12.75;6.20;;;6.30;99.90;;;;;;21348785;27;20058;-81
2022/11/29 00:26:42;;;;;;;15.82;7.43;;;6.30;99.90;;;;;;21244702;27;20039;-81
2022/11/29 00:36:42;;;;;;;15.20;6.63;;;6.40;99.90;;;;;;21225638;27;20524;-79
2022/11/29 00:46:43;;;;;;;14.20;6.53;;;6.30;99.90;;;;;;21260028;27;20023;-80
2022/11/29 00:56:44;;;;;;;20.25;6.03;;;6.30;99.90;;;;;;21260740;27;20031;-81
2022/11/29 01:06:45;;;;;;;11.17;4.90;;;6.40;99.90;;;;;;21259262;27;20417;-80
2022/11/29 01:16:45;;;;;;;10.20;5.53;;;6.50;99.90;;;;;;21260360;27;20095;-81
2022/11/29 01:26:46;;;;;;;8.57;5.03;;;6.40;99.90;;;;;;21257805;27;20045;-81
2022/11/29 01:36:47;;;;;;;13.97;5.13;;;6.40;99.90;;;;;;21237117;27;20023;-80
2022/11/29 01:46:48;;;;;;;10.70;4.67;;;6.40;99.90;;;;;;21253697;27;20139;-81
2022/11/29 01:56:50;;;;;;;13.20;4.65;;;6.40;99.90;;;;;;21255262;27;20378;-81
2022/11/29 02:06:51;;;;;;;12.80;4.10;;;6.40;99.90;;;;;;21235173;27;20039;-80
2022/11/29 02:17:13;;;;;;;19.17;4.53;;;6.40;99.90;;;;;;21234359;27;20035;-80
2022/11/29 02:27:26;;;;;;;;;;;6.40;99.90;;;;;;21253190;27;20038;-79
2022/11/29 02:37:33;;;;;;;23.80;5.40;;;6.30;99.90;;;;;;21216286;27;19971;-80
2022/11/29 02:47:43;;;;;;;8.57;3.45;;;6.20;99.90;;;;;;21250731;27;20031;-80
2022/11/29 02:58:02;;;;;;;13.35;3.63;;;6.20;99.90;;;;;;21168907;27;20089;-80
2022/11/29 03:08:17;;;;;;;9.40;2.90;;;6.30;99.90;;;;;;21180543;28;20172;-80
2022/11/29 03:18:56;;;;;;;10.98;3.47;;;6.30;99.90;;;;;;21247987;27;20410;-80
2022/11/29 03:29:14;;;;;;;12.63;4.03;;;6.30;99.90;;;;;;21246805;28;20032;-79
2022/11/29 03:39:23;;;;;;;12.60;4.38;;;6.20;99.90;;;;;;21229192;28;20027;-81
2022/11/29 03:49:36;;;;;;;10.90;4.35;;;6.20;99.90;;;;;;21229590;28;20122;-80
2022/11/29 03:59:51;;;;;;;13.48;4.53;;;6.20;99.90;;;;;;21228711;28;20378;-80
2022/11/29 04:10:35;;;;;;;13.52;3.78;;;6.20;99.90;;;;;;21253875;27;20575;-81
2022/11/29 04:20:48;;;;;;;7.78;3.15;;;6.20;99.90;;;;;;21189272;27;20053;-81
2022/11/29 04:31:13;;;;;;;6.00;3.22;;;6.20;99.90;;;;;;21259795;27;20023;-80
2022/11/29 04:41:47;;;;;;;12.15;3.65;;;6.20;99.90;;;;;;21225465;27;20062;-80
2022/11/29 04:51:57;;;;;;;7.65;2.58;;;6.20;99.90;;;;;;21169809;27;20045;-80
2022/11/29 05:02:31;;;;;;;9.10;2.45;;;6.30;99.90;;;;;;21243294;27;20046;-80
2022/11/29 05:12:38;;;;;;;8.05;3.13;;;6.30;99.90;;;;;;21238678;27;20035;-80
2022/11/29 05:22:57;;;;;;;8.07;3.13;;;6.30;99.90;;;;;;21287224;27;20034;-79
2022/11/29 05:33:52;;;;;;;12.48;2.92;;;6.30;99.90;;;;;;21298656;27;20035;-82
2022/11/29 05:44:19;;;;;;;10.50;3.47;;;6.40;99.90;;;;;;21051296;27;20047;-81
2022/11/29 05:54:29;;;;;;;6.82;3.55;;;6.40;99.90;;;;;;21250797;27;20031;-80
2022/11/29 06:04:44;;;;;;;10.93;3.42;;;6.40;99.90;;;;;;21321572;27;20106;-80
2022/11/29 06:15:14;;;;;;;19.73;4.40;;;6.40;99.90;;;;;;21318493;27;20035;-80
2022/11/29 06:25:38;;;;;;;12.57;4.55;;;6.40;99.90;;;;;;21301788;27;20047;-79
2022/11/29 06:36:02;;;;;;;14.63;4.32;;;6.40;99.90;;;;;;21283970;27;20088;-80
2022/11/29 06:46:36;;;;;;;18.27;4.50;;;6.40;99.90;;;;;;21280471;27;20114;-79
2022/11/29 06:56:56;;;;;;;18.75;5.70;;;6.40;99.90;;;;;;21289375;27;20072;-80
2022/11/29 07:06:57;;;;;;;20.90;5.32;;;6.40;99.90;;;;;;21297241;27;20031;-80
2022/11/29 07:17:20;;;;;;;16.05;4.45;;;6.40;99.90;;;;;;21292540;27;20555;-79
2022/11/29 07:27:26;;;;;;;11.18;5.55;;;6.40;99.90;;;;;;21249695;27;20019;-79
2022/11/29 07:38:04;;;;;;;10.43;4.47;;;6.40;99.90;;;;;;21250854;27;20114;-80
2022/11/29 07:48:06;;;;;;;15.38;4.18;;;6.40;99.90;;;;;;21264208;27;20031;-80
2022/11/29 07:58:11;;;;;;;12.35;4.65;;;6.50;99.90;;;;;;21250499;27;20041;-80
2022/11/29 08:08:12;;;;;;;12.30;4.30;;;6.60;99.90;;;;;;21270870;27;20486;-81
2022/11/29 08:18:14;;;;;;;17.03;5.47;;;6.60;99.90;;;;;;21258092;27;20052;-80
2022/11/29 08:28:14;;;;;;;10.88;5.20;;;6.80;99.90;;;;;;21325563;27;20030;-80
2022/11/29 08:38:15;;;;;;;13.63;5.77;;;7.00;99.90;;;;;;21369140;27;20481;-80
2022/11/29 08:48:16;;;;;;;16.00;5.07;;;7.20;99.90;;;;;;21344017;27;20037;-80
2022/11/29 08:58:17;;;;;;;14.70;5.63;;;7.30;99.90;;;;;;21354555;27;20053;-81
2022/11/29 09:08:18;;;;;;;12.75;5.57;;;7.50;99.90;;;;;;21338609;27;20042;-80
2022/11/29 09:18:21;;;;;;;15.38;6.53;;;7.60;99.90;;;;;;21348631;27;20027;-80
2022/11/29 09:28:22;;;;;;;15.32;5.20;;;7.90;99.90;;;;;;21327267;27;20174;-80
2022/11/29 09:38:23;;;;;;;9.97;3.13;;;8.00;99.90;;;;;;21339118;27;20026;-81
2022/11/29 09:48:32;;;;;;;18.50;3.63;;;8.70;99.90;;;;;;21356155;27;20026;-80
2022/11/29 09:58:56;;;;;;;8.77;2.97;;;9.10;99.90;;;;;;21335224;27;20027;-80
2022/11/29 10:09:21;;;;;;;10.95;3.25;;;8.70;99.90;;;;;;21332188;27;20475;-79
2022/11/29 10:19:31;;;;;;;12.05;3.78;;;8.40;99.90;;;;;;21333132;27;20015;-79
2022/11/29 10:29:32;;;;;;;8.18;2.97;;;8.30;99.90;;;;;;21229082;27;20057;-79
2022/11/29 10:39:40;;;;;;;11.03;2.90;;;8.40;99.90;;;;;;21249231;27;20469;-80
2022/11/29 10:49:41;;;;;;;5.90;3.10;;;8.30;99.90;;;;;;21247042;27;20042;-79
2022/11/29 10:59:58;;;;;;;11.00;3.67;;;8.40;99.90;;;;;;21246089;27;20069;-79
2022/11/29 11:10:00;;;;;;;7.13;2.00;;;8.60;99.90;;;;;;21240432;27;20087;-78
2022/11/29 11:20:18;;;;;;;16.55;3.50;;;8.80;99.90;;;;;;21273192;27;20038;-80
2022/11/29 11:30:26;;;;;;;4.90;2.60;;;9.10;99.90;;;;;;21360032;27;20070;-80
2022/11/29 11:40:29;;;;;;;8.43;2.75;;;9.00;99.90;;;;;;21358469;27;20027;-79
2022/11/29 11:50:41;;;;;;;10.43;3.10;;;9.30;99.90;;;;;;21323690;27;20091;-79
2022/11/29 12:00:52;;;;;;;4.70;2.63;;;9.20;99.90;;;;;;21321597;27;20125;-80
2022/11/29 12:10:58;;;;;;;10.17;4.70;;;9.00;99.90;;;;;;21357195;27;20051;-79
2022/11/29 12:21:06;;;;;;;10.02;3.42;;;8.90;99.90;;;;;;21354958;27;20134;-79
2022/11/29 12:31:18;;;;;;;10.05;3.35;;;8.60;99.90;;;;;;21351375;27;20027;-79
2022/11/29 12:41:44;;;;;;;11.35;3.95;;;8.70;99.90;;;;;;21349559;27;20031;-79
2022/11/29 12:51:57;;;;;;;6.60;2.47;;;8.70;99.90;;;;;;21335575;27;20059;-79
2022/11/29 13:02:07;;;;;;;6.40;1.92;;;8.80;99.90;;;;;;21334508;27;20023;-79
2022/11/29 13:12:18;;;;;;;7.25;1.83;;;8.90;99.90;;;;;;21314482;27;20030;-79
2022/11/29 13:22:34;;;;;;;5.30;2.15;;;8.90;99.90;;;;;;21355020;27;20042;-80
2022/11/29 13:32:42;;;;;;;6.20;2.35;;;9.00;99.90;;;;;;21337564;27;20054;-80
2022/11/29 13:43:17;;;;;;;13.27;4.20;;;8.90;99.90;;;;;;21353918;27;20504;-80
2022/11/29 13:53:21;;;;;;;8.57;2.63;;;8.90;99.90;;;;;;21318708;27;20045;-80
2022/11/29 14:03:22;;;;;;;12.90;2.55;;;8.80;99.90;;;;;;21351021;27;20548;-80
2022/11/29 14:13:42;;;;;;;5.87;2.50;;;8.80;99.90;;;;;;21332097;27;20163;-80
2022/11/29 14:23:45;;;;;;;9.93;2.40;;;8.80;99.90;;;;;;21333079;27;20041;-80
2022/11/29 14:33:46;;;;;;;9.98;2.97;;;8.40;99.90;;;;;;21333259;27;20026;-80
2022/11/29 14:43:47;;;;;;;8.53;3.40;;;8.20;99.90;;;;;;21351337;27;20062;-81
2022/11/29 14:54:01;;;;;;;10.50;2.50;;;8.10;99.90;;;;;;21326530;27;20056;-80
2022/11/29 15:04:03;;;;;;;7.93;2.50;;;7.90;99.90;;;;;;21342213;27;20071;-80
2022/11/29 15:14:25;;;;;;;9.18;3.10;;;7.80;99.90;;;;;;21326979;27;20094;-80
2022/11/29 15:24:25;;;;;;;;;;;7.80;99.90;;;;;;21326004;27;20028;-80
2022/11/29 15:34:45;;;;;;;6.07;2.30;;;7.70;99.90;;;;;;21346901;27;20379;-80
2022/11/29 15:44:47;;;;;;;14.20;2.78;;;7.70;99.90;;;;;;21331008;27;20034;-79
2022/11/29 15:54:52;;;;;;;6.55;2.35;;;7.60;99.90;;;;;;21338997;27;20033;-80
2022/11/29 16:04:56;;;;;;;7.57;2.70;;;7.60;99.90;;;;;;21329804;27;20468;-81
2022/11/29 16:14:59;;;;;;;10.00;2.97;;;7.50;99.90;;;;;;21314517;27;20026;-81
2022/11/29 16:25:13;;;;;;;8.98;3.58;;;7.60;99.90;;;;;;21340483;27;20038;-80
2022/11/29 16:35:31;;;;;;;18.33;8.27;;;7.50;99.90;;;;;;21336395;27;20069;-80
2022/11/29 16:45:38;;;;;;;8.80;3.88;;;7.50;99.90;;;;;;21336475;27;20027;-79
2022/11/29 16:55:38;;;;;;;13.43;4.07;;;7.50;99.90;;;;;;21344593;27;20035;-81
2022/11/29 17:05:39;;;;;;;10.00;4.93;;;7.30;99.90;;;;;;21332359;27;20460;-80
2022/11/29 17:15:40;;;;;;;9.43;3.83;;;7.30;99.90;;;;;;21337871;27;20027;-81
2022/11/29 17:25:41;;;;;;;42.70;17.97;;;7.30;99.90;;;;;;21318374;27;20397;-81
2022/11/29 17:35:41;;;;;;;15.47;8.40;;;7.10;99.90;;;;;;21347794;27;20059;-80
2022/11/29 17:45:42;;;;;;;19.67;8.03;;;7.10;99.90;;;;;;21332956;27;20030;-80
2022/11/29 17:55:43;;;;;;;30.57;8.37;;;7.10;99.90;;;;;;21347044;27;20034;-79
2022/11/29 18:05:44;;;;;;;14.20;7.63;;;7.10;99.90;;;;;;21342895;27;20026;-80
2022/11/29 18:15:44;;;;;;;21.43;7.63;;;7.10;99.90;;;;;;21343064;27;20052;-81
2022/11/29 18:25:58;;;;;;;16.77;7.60;;;7.00;99.90;;;;;;21323218;27;20069;-82
2022/11/29 18:36:04;;;;;;;19.98;8.43;;;7.00;99.90;;;;;;21325198;27;20022;-81
2022/11/29 18:46:10;;;;;;;17.25;7.43;;;7.00;99.90;;;;;;21326405;27;20543;-78
2022/11/29 18:56:14;;;;;;;16.05;8.23;;;6.90;99.90;;;;;;21336920;27;20042;-79
2022/11/29 19:06:18;;;;;;;18.13;8.65;;;6.90;99.90;;;;;;21318488;27;20545;-81
2022/11/29 19:16:19;;;;;;;12.90;7.30;;;6.80;99.90;;;;;;21319105;27;20042;-80
2022/11/29 19:26:20;;;;;;;22.17;8.47;;;6.80;99.90;;;;;;21301312;27;20034;-80
2022/11/29 19:36:27;;;;;;;16.25;9.85;;;6.80;99.90;;;;;;21277884;27;20501;-81
2022/11/29 19:46:30;;;;;;;13.82;7.20;;;6.80;99.90;;;;;;21313920;27;20394;-81
2022/11/29 19:56:31;;;;;;;16.50;7.60;;;6.80;99.90;;;;;;21290425;27;20104;-81
2022/11/29 20:06:32;;;;;;;;;;;6.70;99.90;;;;;;21278490;27;20049;-80
2022/11/29 20:16:34;;;;;;;11.48;5.22;;;6.50;99.90;;;;;;21270825;27;19911;-81
2022/11/29 20:26:37;;;;;;;15.57;5.50;;;6.50;99.90;;;;;;21245628;27;20089;-81
2022/11/29 20:37:00;;;;;;;11.48;4.65;;;6.50;99.90;;;;;;21251319;27;20103;-82
2022/11/29 20:47:07;;;;;;;12.65;5.93;;;6.50;99.90;;;;;;21191108;27;20047;-83
2022/11/29 20:57:08;;;;;;;12.27;5.43;;;6.50;99.90;;;;;;21193084;27;20032;-82
2022/11/29 21:07:08;;;;;;;8.43;5.33;;;6.50;99.90;;;;;;21183124;27;20055;-82
2022/11/29 21:17:09;;;;;;;;;;;6.40;99.90;;;;;;21197553;27;20108;-82
2022/11/29 21:27:13;;;;;;;11.63;5.50;;;6.20;99.90;;;;;;21334397;27;19917;-82
2022/11/29 21:37:16;;;;;;;11.23;6.22;;;6.30;99.90;;;;;;21308826;27;20031;-81
2022/11/29 21:47:17;;;;;;;15.38;7.00;;;6.20;99.90;;;;;;21331560;27;20484;-82
2022/11/29 21:57:18;;;;;;;15.67;8.00;;;6.20;99.90;;;;;;21350027;27;20050;-81
2022/11/29 22:07:19;;;;;;;17.95;7.28;;;6.30;99.90;;;;;;21331708;27;20336;-82
2022/11/29 22:17:20;;;;;;;11.93;6.40;;;6.40;99.90;;;;;;21336774;27;20489;-83
2022/11/29 22:27:20;;;;;;;15.57;6.73;;;6.40;99.90;;;;;;21353354;27;20022;-81
2022/11/29 22:37:21;;;;;;;11.05;6.35;;;6.30;99.90;;;;;;21357790;27;20029;-82
2022/11/29 22:47:22;;;;;;;17.23;6.33;;;6.30;99.90;;;;;;21350271;27;20110;-82
2022/11/29 22:57:23;;;;;;;12.10;5.63;;;6.30;99.90;;;;;;21357036;27;20030;-82
2022/11/29 23:07:24;;;;;;;14.87;5.43;;;6.40;99.90;;;;;;21335727;27;20030;-81
2022/11/29 23:17:24;;;;;;;14.90;6.37;;;6.30;99.90;;;;;;21314342;27;20075;-81
2022/11/29 23:27:25;;;;;;;11.20;5.40;;;6.20;99.90;;;;;;21252664;28;20371;-81
2022/11/29 23:37:26;;;;;;;7.87;4.80;;;6.10;99.90;;;;;;21236288;28;20408;-81
2022/11/29 23:47:27;;;;;;;12.53;4.60;;;6.10;99.90;;;;;;21240628;28;20353;-82
2022/11/29 23:57:31;;;;;;;10.20;4.63;;;6.10;99.90;;;;;;21236202;28;20292;-81
